sensor_id;sensor_type;location;lat;lon;timestamp;P1;durP1;ratioP1;P2;durP2;ratioP2
75787;SDS011;64406;50.024;14.492;2024-01-25T00:01:17;8.38;;;2.42;;
75787;SDS011;64406;50.024;14.492;2024-01-25T00:03:43;10.20;;;2.22;;
75787;SDS011;64406;50.024;14.492;2024-01-25T00:06:08;7.32;;;2.10;;
75787;SDS011;64406;50.024;14.492;2024-01-25T00:08:34;8.50;;;1.80;;
75787;SDS011;64406;50.024;14.492;2024-01-25T00:11:01;8.32;;;1.77;;
75787;SDS011;64406;50.024;14.492;2024-01-25T00:13:28;11.68;;;2.50;;
75787;SDS011;64406;50.024;14.492;2024-01-25T00:15:54;9.50;;;2.33;;
75787;SDS011;64406;50.024;14.492;2024-01-25T00:18:20;8.85;;;2.22;;
75787;SDS011;64406;50.024;14.492;2024-01-25T00:20:45;13.15;;;2.22;;
75787;SDS011;64406;50.024;14.492;2024-01-25T00:23:11;10.95;;;1.98;;
75787;SDS011;64406;50.024;14.492;2024-01-25T00:25:36;7.15;;;2.33;;
75787;SDS011;64406;50.024;14.492;2024-01-25T00:28:02;6.53;;;2.15;;
75787;SDS011;64406;50.024;14.492;2024-01-25T00:30:28;7.75;;;1.75;;
75787;SDS011;64406;50.024;14.492;2024-01-25T00:32:54;5.50;;;1.95;;
75787;SDS011;64406;50.024;14.492;2024-01-25T00:35:21;6.38;;;2.30;;
75787;SDS011;64406;50.024;14.492;2024-01-25T00:37:47;6.72;;;2.53;;
75787;SDS011;64406;50.024;14.492;2024-01-25T00:40:12;12.10;;;2.38;;
75787;SDS011;64406;50.024;14.492;2024-01-25T00:42:43;10.13;;;2.85;;
75787;SDS011;64406;50.024;14.492;2024-01-25T00:45:10;13.43;;;2.05;;
75787;SDS011;64406;50.024;14.492;2024-01-25T00:47:37;6.28;;;2.22;;
75787;SDS011;64406;50.024;14.492;2024-01-25T00:50:03;9.65;;;1.98;;
75787;SDS011;64406;50.024;14.492;2024-01-25T00:52:30;24.77;;;3.08;;
75787;SDS011;64406;50.024;14.492;2024-01-25T00:54:56;9.60;;;1.77;;
75787;SDS011;64406;50.024;14.492;2024-01-25T00:57:22;6.15;;;1.90;;
75787;SDS011;64406;50.024;14.492;2024-01-25T00:59:47;8.05;;;2.70;;
75787;SDS011;64406;50.024;14.492;2024-01-25T01:02:13;12.52;;;2.75;;
75787;SDS011;64406;50.024;14.492;2024-01-25T01:04:39;11.15;;;2.63;;
75787;SDS011;64406;50.024;14.492;2024-01-25T01:07:06;11.02;;;3.03;;
75787;SDS011;64406;50.024;14.492;2024-01-25T01:09:32;5.72;;;2.33;;
75787;SDS011;64406;50.024;14.492;2024-01-25T01:11:58;5.95;;;2.25;;
75787;SDS011;64406;50.024;14.492;2024-01-25T01:14:24;6.20;;;2.00;;
75787;SDS011;64406;50.024;14.492;2024-01-25T01:16:50;9.70;;;1.88;;
75787;SDS011;64406;50.024;14.492;2024-01-25T01:19:16;12.43;;;2.33;;
75787;SDS011;64406;50.024;14.492;2024-01-25T01:21:42;7.07;;;2.13;;
75787;SDS011;64406;50.024;14.492;2024-01-25T01:24:12;9.65;;;1.60;;
75787;SDS011;64406;50.024;14.492;2024-01-25T01:26:38;7.90;;;2.47;;
75787;SDS011;64406;50.024;14.492;2024-01-25T01:29:03;10.05;;;2.30;;
75787;SDS011;64406;50.024;14.492;2024-01-25T01:31:30;8.02;;;2.17;;
75787;SDS011;64406;50.024;14.492;2024-01-25T01:33:56;10.95;;;2.28;;
75787;SDS011;64406;50.024;14.492;2024-01-25T01:36:23;13.15;;;2.45;;
75787;SDS011;64406;50.024;14.492;2024-01-25T01:38:48;12.00;;;2.92;;
75787;SDS011;64406;50.024;14.492;2024-01-25T01:41:14;9.10;;;2.55;;
75787;SDS011;64406;50.024;14.492;2024-01-25T01:43:40;11.60;;;2.25;;
75787;SDS011;64406;50.024;14.492;2024-01-25T01:46:09;9.95;;;2.83;;
75787;SDS011;64406;50.024;14.492;2024-01-25T01:48:40;10.73;;;2.67;;
75787;SDS011;64406;50.024;14.492;2024-01-25T01:51:07;7.15;;;1.92;;
75787;SDS011;64406;50.024;14.492;2024-01-25T01:53:34;22.83;;;3.92;;
75787;SDS011;64406;50.024;14.492;2024-01-25T01:56:00;5.80;;;1.52;;
75787;SDS011;64406;50.024;14.492;2024-01-25T01:58:25;10.23;;;2.25;;
75787;SDS011;64406;50.024;14.492;2024-01-25T02:00:53;9.70;;;1.75;;
75787;SDS011;64406;50.024;14.492;2024-01-25T02:03:20;11.48;;;2.28;;
75787;SDS011;64406;50.024;14.492;2024-01-25T02:05:46;5.65;;;1.75;;
75787;SDS011;64406;50.024;14.492;2024-01-25T02:08:12;6.80;;;2.28;;
75787;SDS011;64406;50.024;14.492;2024-01-25T02:10:38;9.23;;;1.90;;
75787;SDS011;64406;50.024;14.492;2024-01-25T02:13:04;14.77;;;3.08;;
75787;SDS011;64406;50.024;14.492;2024-01-25T02:15:29;7.82;;;2.25;;
75787;SDS011;64406;50.024;14.492;2024-01-25T02:17:55;9.95;;;2.08;;
75787;SDS011;64406;50.024;14.492;2024-01-25T02:20:21;11.85;;;2.95;;
75787;SDS011;64406;50.024;14.492;2024-01-25T02:22:47;10.68;;;2.15;;
75787;SDS011;64406;50.024;14.492;2024-01-25T02:25:12;8.73;;;1.80;;
75787;SDS011;64406;50.024;14.492;2024-01-25T02:27:38;13.02;;;2.60;;
75787;SDS011;64406;50.024;14.492;2024-01-25T02:30:05;5.38;;;2.22;;
75787;SDS011;64406;50.024;14.492;2024-01-25T02:32:32;5.22;;;1.75;;
75787;SDS011;64406;50.024;14.492;2024-01-25T02:34:57;14.13;;;1.85;;
75787;SDS011;64406;50.024;14.492;2024-01-25T02:37:23;11.52;;;2.33;;
75787;SDS011;64406;50.024;14.492;2024-01-25T02:39:49;10.63;;;1.70;;
75787;SDS011;64406;50.024;14.492;2024-01-25T02:42:15;8.57;;;2.25;;
75787;SDS011;64406;50.024;14.492;2024-01-25T02:44:42;5.50;;;2.00;;
75787;SDS011;64406;50.024;14.492;2024-01-25T02:47:08;7.70;;;2.22;;
75787;SDS011;64406;50.024;14.492;2024-01-25T02:49:34;8.75;;;1.98;;
75787;SDS011;64406;50.024;14.492;2024-01-25T02:51:59;12.40;;;2.63;;
75787;SDS011;64406;50.024;14.492;2024-01-25T02:54:25;9.25;;;1.98;;
75787;SDS011;64406;50.024;14.492;2024-01-25T02:56:50;7.93;;;1.75;;
75787;SDS011;64406;50.024;14.492;2024-01-25T02:59:16;9.93;;;2.25;;
75787;SDS011;64406;50.024;14.492;2024-01-25T03:01:43;5.22;;;2.08;;
75787;SDS011;64406;50.024;14.492;2024-01-25T03:04:10;4.15;;;1.50;;
75787;SDS011;64406;50.024;14.492;2024-01-25T03:06:36;8.63;;;1.67;;
75787;SDS011;64406;50.024;14.492;2024-01-25T03:09:02;7.65;;;1.80;;
75787;SDS011;64406;50.024;14.492;2024-01-25T03:11:31;9.63;;;1.83;;
75787;SDS011;64406;50.024;14.492;2024-01-25T03:13:57;7.82;;;1.98;;
75787;SDS011;64406;50.024;14.492;2024-01-25T03:16:22;5.05;;;1.70;;
75787;SDS011;64406;50.024;14.492;2024-01-25T03:18:48;8.10;;;1.73;;
75787;SDS011;64406;50.024;14.492;2024-01-25T03:21:14;12.07;;;2.05;;
75787;SDS011;64406;50.024;14.492;2024-01-25T03:23:40;12.30;;;2.40;;
75787;SDS011;64406;50.024;14.492;2024-01-25T03:26:05;8.77;;;1.70;;
75787;SDS011;64406;50.024;14.492;2024-01-25T03:28:31;7.20;;;2.28;;
75787;SDS011;64406;50.024;14.492;2024-01-25T03:30:58;13.32;;;2.75;;
75787;SDS011;64406;50.024;14.492;2024-01-25T03:33:23;9.65;;;2.20;;
75787;SDS011;64406;50.024;14.492;2024-01-25T03:35:50;12.02;;;2.63;;
75787;SDS011;64406;50.024;14.492;2024-01-25T03:38:16;8.63;;;1.92;;
75787;SDS011;64406;50.024;14.492;2024-01-25T03:40:41;9.57;;;2.17;;
75787;SDS011;64406;50.024;14.492;2024-01-25T03:43:07;8.77;;;1.85;;
75787;SDS011;64406;50.024;14.492;2024-01-25T03:45:33;18.63;;;2.80;;
75787;SDS011;64406;50.024;14.492;2024-01-25T03:47:59;8.77;;;2.10;;
75787;SDS011;64406;50.024;14.492;2024-01-25T03:50:25;12.07;;;2.25;;
75787;SDS011;64406;50.024;14.492;2024-01-25T03:52:52;8.50;;;2.50;;
75787;SDS011;64406;50.024;14.492;2024-01-25T03:55:17;9.30;;;2.72;;
75787;SDS011;64406;50.024;14.492;2024-01-25T03:57:44;9.48;;;2.30;;
75787;SDS011;64406;50.024;14.492;2024-01-25T04:00:10;8.73;;;2.78;;
75787;SDS011;64406;50.024;14.492;2024-01-25T04:02:36;7.88;;;2.65;;
75787;SDS011;64406;50.024;14.492;2024-01-25T04:05:02;13.50;;;2.40;;
75787;SDS011;64406;50.024;14.492;2024-01-25T04:07:28;7.10;;;2.08;;
75787;SDS011;64406;50.024;14.492;2024-01-25T04:09:54;14.98;;;2.60;;
75787;SDS011;64406;50.024;14.492;2024-01-25T04:12:20;8.48;;;2.25;;
75787;SDS011;64406;50.024;14.492;2024-01-25T04:14:45;13.23;;;2.67;;
75787;SDS011;64406;50.024;14.492;2024-01-25T04:17:11;6.50;;;1.77;;
75787;SDS011;64406;50.024;14.492;2024-01-25T04:19:36;6.50;;;2.30;;
75787;SDS011;64406;50.024;14.492;2024-01-25T04:22:02;12.32;;;2.22;;
75787;SDS011;64406;50.024;14.492;2024-01-25T04:24:28;11.38;;;2.63;;
75787;SDS011;64406;50.024;14.492;2024-01-25T04:26:53;10.25;;;3.10;;
75787;SDS011;64406;50.024;14.492;2024-01-25T04:29:20;13.15;;;2.22;;
75787;SDS011;64406;50.024;14.492;2024-01-25T04:31:45;6.85;;;2.25;;
75787;SDS011;64406;50.024;14.492;2024-01-25T04:34:13;10.55;;;2.28;;
75787;SDS011;64406;50.024;14.492;2024-01-25T04:36:39;12.23;;;3.38;;
75787;SDS011;64406;50.024;14.492;2024-01-25T04:39:05;8.70;;;2.55;;
75787;SDS011;64406;50.024;14.492;2024-01-25T04:41:30;8.32;;;2.08;;
75787;SDS011;64406;50.024;14.492;2024-01-25T04:43:56;14.02;;;2.55;;
75787;SDS011;64406;50.024;14.492;2024-01-25T04:46:22;8.35;;;2.28;;
75787;SDS011;64406;50.024;14.492;2024-01-25T04:48:47;13.93;;;2.95;;
75787;SDS011;64406;50.024;14.492;2024-01-25T04:51:16;12.68;;;2.30;;
75787;SDS011;64406;50.024;14.492;2024-01-25T04:53:42;7.97;;;2.28;;
75787;SDS011;64406;50.024;14.492;2024-01-25T04:56:09;15.85;;;2.40;;
75787;SDS011;64406;50.024;14.492;2024-01-25T04:58:34;13.85;;;2.60;;
75787;SDS011;64406;50.024;14.492;2024-01-25T05:01:00;7.60;;;1.83;;
75787;SDS011;64406;50.024;14.492;2024-01-25T05:03:26;7.00;;;2.35;;
75787;SDS011;64406;50.024;14.492;2024-01-25T05:05:52;9.50;;;2.00;;
75787;SDS011;64406;50.024;14.492;2024-01-25T05:08:17;9.07;;;2.22;;
75787;SDS011;64406;50.024;14.492;2024-01-25T05:10:43;6.35;;;2.08;;
75787;SDS011;64406;50.024;14.492;2024-01-25T05:13:09;9.55;;;2.58;;
75787;SDS011;64406;50.024;14.492;2024-01-25T05:15:35;12.27;;;2.88;;
75787;SDS011;64406;50.024;14.492;2024-01-25T05:18:03;10.30;;;2.90;;
75787;SDS011;64406;50.024;14.492;2024-01-25T05:20:29;6.90;;;2.50;;
75787;SDS011;64406;50.024;14.492;2024-01-25T05:22:58;13.07;;;2.78;;
75787;SDS011;64406;50.024;14.492;2024-01-25T05:25:24;11.55;;;2.65;;
75787;SDS011;64406;50.024;14.492;2024-01-25T05:27:51;15.00;;;3.38;;
75787;SDS011;64406;50.024;14.492;2024-01-25T05:30:17;19.38;;;3.65;;
75787;SDS011;64406;50.024;14.492;2024-01-25T05:32:43;5.72;;;1.88;;
75787;SDS011;64406;50.024;14.492;2024-01-25T05:35:09;5.57;;;1.50;;
75787;SDS011;64406;50.024;14.492;2024-01-25T05:37:35;13.88;;;2.40;;
75787;SDS011;64406;50.024;14.492;2024-01-25T05:40:00;8.05;;;2.60;;
75787;SDS011;64406;50.024;14.492;2024-01-25T05:42:26;10.10;;;2.08;;
75787;SDS011;64406;50.024;14.492;2024-01-25T05:44:52;6.95;;;2.67;;
75787;SDS011;64406;50.024;14.492;2024-01-25T05:47:17;12.07;;;2.30;;
75787;SDS011;64406;50.024;14.492;2024-01-25T05:49:43;8.88;;;2.42;;
75787;SDS011;64406;50.024;14.492;2024-01-25T05:52:08;9.30;;;2.00;;
75787;SDS011;64406;50.024;14.492;2024-01-25T05:54:34;10.30;;;2.60;;
75787;SDS011;64406;50.024;14.492;2024-01-25T05:57:00;5.70;;;2.30;;
75787;SDS011;64406;50.024;14.492;2024-01-25T05:59:25;11.93;;;2.55;;
75787;SDS011;64406;50.024;14.492;2024-01-25T06:01:51;11.50;;;3.05;;
75787;SDS011;64406;50.024;14.492;2024-01-25T06:04:16;8.40;;;2.05;;
75787;SDS011;64406;50.024;14.492;2024-01-25T06:06:42;7.88;;;2.35;;
75787;SDS011;64406;50.024;14.492;2024-01-25T06:09:07;7.03;;;2.30;;
75787;SDS011;64406;50.024;14.492;2024-01-25T06:11:34;14.65;;;3.30;;
75787;SDS011;64406;50.024;14.492;2024-01-25T06:14:01;9.02;;;2.25;;
75787;SDS011;64406;50.024;14.492;2024-01-25T06:16:26;12.50;;;2.85;;
75787;SDS011;64406;50.024;14.492;2024-01-25T06:18:52;8.30;;;2.00;;
75787;SDS011;64406;50.024;14.492;2024-01-25T06:21:18;10.50;;;2.00;;
75787;SDS011;64406;50.024;14.492;2024-01-25T06:23:43;10.43;;;2.75;;
75787;SDS011;64406;50.024;14.492;2024-01-25T06:26:09;6.85;;;1.83;;
75787;SDS011;64406;50.024;14.492;2024-01-25T06:28:34;12.88;;;2.25;;
75787;SDS011;64406;50.024;14.492;2024-01-25T06:31:03;10.57;;;2.03;;
75787;SDS011;64406;50.024;14.492;2024-01-25T06:33:29;13.50;;;3.22;;
75787;SDS011;64406;50.024;14.492;2024-01-25T06:35:55;11.10;;;2.00;;
75787;SDS011;64406;50.024;14.492;2024-01-25T06:38:21;6.55;;;2.05;;
75787;SDS011;64406;50.024;14.492;2024-01-25T06:40:47;12.27;;;2.75;;
75787;SDS011;64406;50.024;14.492;2024-01-25T06:43:12;14.50;;;2.40;;
75787;SDS011;64406;50.024;14.492;2024-01-25T06:45:38;15.38;;;2.47;;
75787;SDS011;64406;50.024;14.492;2024-01-25T06:48:06;10.50;;;3.38;;
75787;SDS011;64406;50.024;14.492;2024-01-25T06:50:35;10.90;;;2.13;;
75787;SDS011;64406;50.024;14.492;2024-01-25T06:53:01;5.68;;;1.98;;
75787;SDS011;64406;50.024;14.492;2024-01-25T06:55:27;7.80;;;1.52;;
75787;SDS011;64406;50.024;14.492;2024-01-25T06:57:52;14.32;;;2.53;;
75787;SDS011;64406;50.024;14.492;2024-01-25T07:00:18;8.98;;;1.88;;
75787;SDS011;64406;50.024;14.492;2024-01-25T07:02:46;9.25;;;2.08;;
75787;SDS011;64406;50.024;14.492;2024-01-25T07:05:12;7.82;;;2.30;;
75787;SDS011;64406;50.024;14.492;2024-01-25T07:07:38;9.90;;;2.17;;
75787;SDS011;64406;50.024;14.492;2024-01-25T07:10:05;10.52;;;2.33;;
75787;SDS011;64406;50.024;14.492;2024-01-25T07:12:31;9.93;;;1.90;;
75787;SDS011;64406;50.024;14.492;2024-01-25T07:14:57;4.07;;;1.63;;
75787;SDS011;64406;50.024;14.492;2024-01-25T07:17:23;7.93;;;1.58;;
75787;SDS011;64406;50.024;14.492;2024-01-25T07:19:49;7.95;;;1.73;;
75787;SDS011;64406;50.024;14.492;2024-01-25T07:22:14;5.47;;;1.60;;
75787;SDS011;64406;50.024;14.492;2024-01-25T07:24:42;6.05;;;1.42;;
75787;SDS011;64406;50.024;14.492;2024-01-25T07:27:08;9.43;;;2.22;;
75787;SDS011;64406;50.024;14.492;2024-01-25T07:29:36;5.93;;;2.78;;
75787;SDS011;64406;50.024;14.492;2024-01-25T07:32:02;5.00;;;1.45;;
75787;SDS011;64406;50.024;14.492;2024-01-25T07:34:28;11.75;;;1.65;;
75787;SDS011;64406;50.024;14.492;2024-01-25T07:36:54;5.45;;;1.88;;
75787;SDS011;64406;50.024;14.492;2024-01-25T07:39:20;12.82;;;2.58;;
75787;SDS011;64406;50.024;14.492;2024-01-25T07:41:45;10.18;;;1.70;;
75787;SDS011;64406;50.024;14.492;2024-01-25T07:44:12;12.23;;;1.77;;
75787;SDS011;64406;50.024;14.492;2024-01-25T07:46:38;7.80;;;1.95;;
75787;SDS011;64406;50.024;14.492;2024-01-25T07:49:03;6.50;;;1.60;;
75787;SDS011;64406;50.024;14.492;2024-01-25T07:51:30;14.65;;;2.70;;
75787;SDS011;64406;50.024;14.492;2024-01-25T07:53:55;13.48;;;3.03;;
75787;SDS011;64406;50.024;14.492;2024-01-25T07:56:21;11.75;;;2.70;;
75787;SDS011;64406;50.024;14.492;2024-01-25T07:58:50;13.73;;;2.78;;
75787;SDS011;64406;50.024;14.492;2024-01-25T08:01:19;8.30;;;2.25;;
75787;SDS011;64406;50.024;14.492;2024-01-25T08:03:46;6.97;;;1.95;;
75787;SDS011;64406;50.024;14.492;2024-01-25T08:06:12;8.15;;;1.65;;
75787;SDS011;64406;50.024;14.492;2024-01-25T08:08:38;3.65;;;1.30;;
75787;SDS011;64406;50.024;14.492;2024-01-25T08:11:04;14.05;;;2.70;;
75787;SDS011;64406;50.024;14.492;2024-01-25T08:13:30;9.93;;;1.63;;
75787;SDS011;64406;50.024;14.492;2024-01-25T08:15:56;9.98;;;1.83;;
75787;SDS011;64406;50.024;14.492;2024-01-25T08:18:23;8.70;;;1.90;;
75787;SDS011;64406;50.024;14.492;2024-01-25T08:20:54;10.32;;;2.28;;
75787;SDS011;64406;50.024;14.492;2024-01-25T08:23:20;6.82;;;1.63;;
75787;SDS011;64406;50.024;14.492;2024-01-25T08:25:46;8.98;;;2.38;;
75787;SDS011;64406;50.024;14.492;2024-01-25T08:28:11;8.65;;;1.50;;
75787;SDS011;64406;50.024;14.492;2024-01-25T08:30:37;8.10;;;1.60;;
75787;SDS011;64406;50.024;14.492;2024-01-25T08:33:03;13.73;;;2.05;;
75787;SDS011;64406;50.024;14.492;2024-01-25T08:35:28;7.80;;;1.75;;
75787;SDS011;64406;50.024;14.492;2024-01-25T08:37:56;4.95;;;1.75;;
75787;SDS011;64406;50.024;14.492;2024-01-25T08:40:21;12.98;;;2.25;;
75787;SDS011;64406;50.024;14.492;2024-01-25T08:42:47;5.68;;;1.95;;
75787;SDS011;64406;50.024;14.492;2024-01-25T08:45:13;7.20;;;2.22;;
75787;SDS011;64406;50.024;14.492;2024-01-25T08:47:39;7.57;;;1.85;;
75787;SDS011;64406;50.024;14.492;2024-01-25T08:50:06;12.10;;;2.00;;
75787;SDS011;64406;50.024;14.492;2024-01-25T08:52:36;9.40;;;2.03;;
75787;SDS011;64406;50.024;14.492;2024-01-25T08:55:05;9.10;;;2.08;;
75787;SDS011;64406;50.024;14.492;2024-01-25T08:57:31;8.23;;;2.20;;
75787;SDS011;64406;50.024;14.492;2024-01-25T08:59:56;3.28;;;1.48;;
75787;SDS011;64406;50.024;14.492;2024-01-25T09:02:24;9.00;;;2.88;;
75787;SDS011;64406;50.024;14.492;2024-01-25T09:04:52;14.00;;;2.63;;
75787;SDS011;64406;50.024;14.492;2024-01-25T09:07:19;5.97;;;1.50;;
75787;SDS011;64406;50.024;14.492;2024-01-25T09:09:45;3.45;;;1.42;;
75787;SDS011;64406;50.024;14.492;2024-01-25T09:12:11;6.38;;;1.67;;
75787;SDS011;64406;50.024;14.492;2024-01-25T09:14:38;6.78;;;1.77;;
75787;SDS011;64406;50.024;14.492;2024-01-25T09:17:04;8.60;;;2.15;;
75787;SDS011;64406;50.024;14.492;2024-01-25T09:19:30;8.52;;;1.67;;
75787;SDS011;64406;50.024;14.492;2024-01-25T09:21:56;8.98;;;2.22;;
75787;SDS011;64406;50.024;14.492;2024-01-25T09:24:25;7.20;;;1.67;;
75787;SDS011;64406;50.024;14.492;2024-01-25T09:26:53;5.70;;;1.25;;
75787;SDS011;64406;50.024;14.492;2024-01-25T09:29:20;7.07;;;1.45;;
75787;SDS011;64406;50.024;14.492;2024-01-25T09:31:47;3.22;;;1.38;;
75787;SDS011;64406;50.024;14.492;2024-01-25T09:34:12;6.72;;;1.40;;
75787;SDS011;64406;50.024;14.492;2024-01-25T09:36:38;6.80;;;1.77;;
75787;SDS011;64406;50.024;14.492;2024-01-25T09:39:03;7.82;;;1.55;;
75787;SDS011;64406;50.024;14.492;2024-01-25T09:41:29;7.45;;;1.70;;
75787;SDS011;64406;50.024;14.492;2024-01-25T09:43:55;8.63;;;1.73;;
75787;SDS011;64406;50.024;14.492;2024-01-25T09:46:21;6.68;;;1.42;;
75787;SDS011;64406;50.024;14.492;2024-01-25T09:48:47;4.97;;;1.60;;
75787;SDS011;64406;50.024;14.492;2024-01-25T09:51:14;12.25;;;1.85;;
75787;SDS011;64406;50.024;14.492;2024-01-25T09:53:40;6.80;;;1.10;;
75787;SDS011;64406;50.024;14.492;2024-01-25T09:56:08;6.65;;;2.00;;
75787;SDS011;64406;50.024;14.492;2024-01-25T09:58:39;5.88;;;1.88;;
75787;SDS011;64406;50.024;14.492;2024-01-25T10:01:07;4.65;;;1.38;;
75787;SDS011;64406;50.024;14.492;2024-01-25T10:03:35;8.73;;;1.60;;
75787;SDS011;64406;50.024;14.492;2024-01-25T10:06:00;5.75;;;1.27;;
75787;SDS011;64406;50.024;14.492;2024-01-25T10:08:26;3.97;;;1.40;;
75787;SDS011;64406;50.024;14.492;2024-01-25T10:10:52;6.93;;;1.50;;
75787;SDS011;64406;50.024;14.492;2024-01-25T10:13:18;2.67;;;1.20;;
75787;SDS011;64406;50.024;14.492;2024-01-25T10:15:45;5.55;;;1.52;;
75787;SDS011;64406;50.024;14.492;2024-01-25T10:18:15;4.65;;;0.90;;
75787;SDS011;64406;50.024;14.492;2024-01-25T10:20:43;4.72;;;1.10;;
75787;SDS011;64406;50.024;14.492;2024-01-25T10:23:09;4.95;;;1.52;;
75787;SDS011;64406;50.024;14.492;2024-01-25T10:25:35;3.85;;;1.50;;
75787;SDS011;64406;50.024;14.492;2024-01-25T10:28:05;7.97;;;1.73;;
75787;SDS011;64406;50.024;14.492;2024-01-25T10:30:32;8.52;;;1.17;;
75787;SDS011;64406;50.024;14.492;2024-01-25T10:32:59;6.93;;;1.38;;
75787;SDS011;64406;50.024;14.492;2024-01-25T10:35:26;7.45;;;1.17;;
75787;SDS011;64406;50.024;14.492;2024-01-25T10:37:52;9.45;;;2.42;;
75787;SDS011;64406;50.024;14.492;2024-01-25T10:40:19;4.63;;;1.42;;
75787;SDS011;64406;50.024;14.492;2024-01-25T10:42:45;9.05;;;1.92;;
75787;SDS011;64406;50.024;14.492;2024-01-25T10:45:12;6.22;;;1.20;;
75787;SDS011;64406;50.024;14.492;2024-01-25T10:47:38;8.60;;;2.10;;
75787;SDS011;64406;50.024;14.492;2024-01-25T10:50:09;6.20;;;1.52;;
75787;SDS011;64406;50.024;14.492;2024-01-25T10:52:41;6.30;;;1.20;;
75787;SDS011;64406;50.024;14.492;2024-01-25T10:55:08;6.28;;;1.27;;
75787;SDS011;64406;50.024;14.492;2024-01-25T10:57:35;4.57;;;0.98;;
75787;SDS011;64406;50.024;14.492;2024-01-25T11:00:06;9.65;;;1.65;;
75787;SDS011;64406;50.024;14.492;2024-01-25T11:02:36;4.45;;;1.55;;
75787;SDS011;64406;50.024;14.492;2024-01-25T11:05:08;5.85;;;1.58;;
75787;SDS011;64406;50.024;14.492;2024-01-25T11:07:40;5.45;;;1.25;;
75787;SDS011;64406;50.024;14.492;2024-01-25T11:10:25;6.00;;;1.40;;
75787;SDS011;64406;50.024;14.492;2024-01-25T11:12:56;2.70;;;1.20;;
75787;SDS011;64406;50.024;14.492;2024-01-25T11:15:23;3.67;;;1.27;;
75787;SDS011;64406;50.024;14.492;2024-01-25T11:18:00;5.13;;;1.25;;
75787;SDS011;64406;50.024;14.492;2024-01-25T11:20:27;4.07;;;1.20;;
75787;SDS011;64406;50.024;14.492;2024-01-25T11:23:06;3.05;;;0.93;;
75787;SDS011;64406;50.024;14.492;2024-01-25T11:25:35;5.45;;;1.70;;
75787;SDS011;64406;50.024;14.492;2024-01-25T11:28:02;4.53;;;1.40;;
75787;SDS011;64406;50.024;14.492;2024-01-25T11:30:31;5.85;;;1.60;;
75787;SDS011;64406;50.024;14.492;2024-01-25T11:32:59;4.80;;;1.33;;
75787;SDS011;64406;50.024;14.492;2024-01-25T11:35:25;4.25;;;1.70;;
75787;SDS011;64406;50.024;14.492;2024-01-25T11:37:52;6.32;;;1.35;;
75787;SDS011;64406;50.024;14.492;2024-01-25T11:40:18;5.25;;;1.13;;
75787;SDS011;64406;50.024;14.492;2024-01-25T11:42:47;5.63;;;1.52;;
75787;SDS011;64406;50.024;14.492;2024-01-25T11:45:15;3.80;;;1.13;;
75787;SDS011;64406;50.024;14.492;2024-01-25T11:47:42;8.32;;;1.35;;
75787;SDS011;64406;50.024;14.492;2024-01-25T11:50:09;2.08;;;1.00;;
75787;SDS011;64406;50.024;14.492;2024-01-25T11:52:37;5.63;;;1.38;;
75787;SDS011;64406;50.024;14.492;2024-01-25T11:55:04;4.05;;;1.00;;
75787;SDS011;64406;50.024;14.492;2024-01-25T11:57:42;4.63;;;1.35;;
75787;SDS011;64406;50.024;14.492;2024-01-25T12:00:12;3.00;;;1.02;;
75787;SDS011;64406;50.024;14.492;2024-01-25T12:02:40;5.55;;;1.52;;
75787;SDS011;64406;50.024;14.492;2024-01-25T12:05:08;5.35;;;1.25;;
75787;SDS011;64406;50.024;14.492;2024-01-25T12:07:35;4.30;;;1.23;;
75787;SDS011;64406;50.024;14.492;2024-01-25T12:10:05;2.75;;;0.93;;
75787;SDS011;64406;50.024;14.492;2024-01-25T12:12:36;5.70;;;1.23;;
75787;SDS011;64406;50.024;14.492;2024-01-25T12:15:06;4.68;;;1.10;;
75787;SDS011;64406;50.024;14.492;2024-01-25T12:17:33;4.60;;;1.40;;
75787;SDS011;64406;50.024;14.492;2024-01-25T12:20:01;5.20;;;1.17;;
75787;SDS011;64406;50.024;14.492;2024-01-25T12:22:28;3.47;;;1.50;;
75787;SDS011;64406;50.024;14.492;2024-01-25T12:24:58;5.07;;;1.15;;
75787;SDS011;64406;50.024;14.492;2024-01-25T12:27:24;6.03;;;1.30;;
75787;SDS011;64406;50.024;14.492;2024-01-25T12:29:51;4.15;;;1.08;;
75787;SDS011;64406;50.024;14.492;2024-01-25T12:32:20;6.85;;;1.23;;
75787;SDS011;64406;50.024;14.492;2024-01-25T12:34:56;5.18;;;1.02;;
75787;SDS011;64406;50.024;14.492;2024-01-25T12:37:26;1.50;;;0.82;;
75787;SDS011;64406;50.024;14.492;2024-01-25T12:39:53;4.15;;;1.40;;
75787;SDS011;64406;50.024;14.492;2024-01-25T12:42:20;2.85;;;0.90;;
75787;SDS011;64406;50.024;14.492;2024-01-25T12:44:46;4.95;;;1.35;;
75787;SDS011;64406;50.024;14.492;2024-01-25T12:47:12;6.03;;;1.33;;
75787;SDS011;64406;50.024;14.492;2024-01-25T12:49:42;5.05;;;1.17;;
75787;SDS011;64406;50.024;14.492;2024-01-25T12:52:08;5.93;;;1.58;;
75787;SDS011;64406;50.024;14.492;2024-01-25T12:54:35;1.83;;;1.00;;
75787;SDS011;64406;50.024;14.492;2024-01-25T12:57:02;6.18;;;1.10;;
75787;SDS011;64406;50.024;14.492;2024-01-25T12:59:28;3.85;;;0.85;;
75787;SDS011;64406;50.024;14.492;2024-01-25T13:01:54;3.58;;;1.02;;
75787;SDS011;64406;50.024;14.492;2024-01-25T13:04:20;2.33;;;0.80;;
75787;SDS011;64406;50.024;14.492;2024-01-25T13:06:47;3.33;;;1.20;;
75787;SDS011;64406;50.024;14.492;2024-01-25T13:09:14;5.63;;;1.00;;
75787;SDS011;64406;50.024;14.492;2024-01-25T13:11:40;2.80;;;1.42;;
75787;SDS011;64406;50.024;14.492;2024-01-25T13:14:06;3.30;;;0.98;;
75787;SDS011;64406;50.024;14.492;2024-01-25T13:16:32;4.80;;;1.17;;
75787;SDS011;64406;50.024;14.492;2024-01-25T13:18:59;3.05;;;1.15;;
75787;SDS011;64406;50.024;14.492;2024-01-25T13:21:25;4.50;;;1.17;;
75787;SDS011;64406;50.024;14.492;2024-01-25T13:23:51;2.20;;;0.93;;
75787;SDS011;64406;50.024;14.492;2024-01-25T13:26:16;6.28;;;1.45;;
75787;SDS011;64406;50.024;14.492;2024-01-25T13:28:42;4.88;;;1.15;;
75787;SDS011;64406;50.024;14.492;2024-01-25T13:31:07;6.10;;;1.05;;
75787;SDS011;64406;50.024;14.492;2024-01-25T13:33:33;2.42;;;1.05;;
75787;SDS011;64406;50.024;14.492;2024-01-25T13:35:59;2.70;;;0.95;;
75787;SDS011;64406;50.024;14.492;2024-01-25T13:38:25;2.72;;;0.80;;
75787;SDS011;64406;50.024;14.492;2024-01-25T13:40:50;4.53;;;0.70;;
75787;SDS011;64406;50.024;14.492;2024-01-25T13:43:16;4.57;;;1.00;;
75787;SDS011;64406;50.024;14.492;2024-01-25T13:45:42;7.85;;;1.35;;
75787;SDS011;64406;50.024;14.492;2024-01-25T13:48:08;4.45;;;1.40;;
75787;SDS011;64406;50.024;14.492;2024-01-25T13:50:33;5.18;;;0.90;;
75787;SDS011;64406;50.024;14.492;2024-01-25T13:52:59;3.90;;;0.90;;
75787;SDS011;64406;50.024;14.492;2024-01-25T13:55:24;5.00;;;1.40;;
75787;SDS011;64406;50.024;14.492;2024-01-25T13:57:50;2.58;;;1.00;;
75787;SDS011;64406;50.024;14.492;2024-01-25T14:00:16;7.18;;;1.55;;
75787;SDS011;64406;50.024;14.492;2024-01-25T14:02:42;3.95;;;1.38;;
75787;SDS011;64406;50.024;14.492;2024-01-25T14:05:10;2.28;;;1.02;;
75787;SDS011;64406;50.024;14.492;2024-01-25T14:07:37;6.43;;;1.33;;
75787;SDS011;64406;50.024;14.492;2024-01-25T14:10:03;4.13;;;0.85;;
75787;SDS011;64406;50.024;14.492;2024-01-25T14:12:29;3.72;;;1.15;;
75787;SDS011;64406;50.024;14.492;2024-01-25T14:14:54;2.72;;;0.80;;
75787;SDS011;64406;50.024;14.492;2024-01-25T14:17:20;2.35;;;0.82;;
75787;SDS011;64406;50.024;14.492;2024-01-25T14:19:46;2.10;;;0.95;;
75787;SDS011;64406;50.024;14.492;2024-01-25T14:22:12;5.05;;;1.02;;
75787;SDS011;64406;50.024;14.492;2024-01-25T14:24:38;8.05;;;1.55;;
75787;SDS011;64406;50.024;14.492;2024-01-25T14:27:04;3.00;;;0.90;;